sensor_id;sensor_type;location;lat;lon;timestamp;temperature;humidity
16867;DHT22;8550;52.596;13.320;2023-11-22T00:00:15;0.30;99.90
16867;DHT22;8550;52.596;13.320;2023-11-22T00:05:17;0.30;99.90
16867;DHT22;8550;52.596;13.320;2023-11-22T00:10:21;0.40;99.90
16867;DHT22;8550;52.596;13.320;2023-11-22T00:15:24;0.30;99.90
16867;DHT22;8550;52.596;13.320;2023-11-22T00:20:26;0.30;99.90
16867;DHT22;8550;52.596;13.320;2023-11-22T00:25:29;0.20;99.90
16867;DHT22;8550;52.596;13.320;2023-11-22T00:30:31;0.20;99.90
16867;DHT22;8550;52.596;13.320;2023-11-22T00:35:33;0.30;99.90
16867;DHT22;8550;52.596;13.320;2023-11-22T00:40:37;0.30;99.90
16867;DHT22;8550;52.596;13.320;2023-11-22T00:45:39;0.20;99.90
16867;DHT22;8550;52.596;13.320;2023-11-22T00:50:41;0.30;99.90
16867;DHT22;8550;52.596;13.320;2023-11-22T00:55:44;0.20;99.90
16867;DHT22;8550;52.596;13.320;2023-11-22T01:00:46;0.20;99.90
16867;DHT22;8550;52.596;13.320;2023-11-22T01:05:48;0.00;99.90
16867;DHT22;8550;52.596;13.320;2023-11-22T01:10:52;-0.10;99.90
16867;DHT22;8550;52.596;13.320;2023-11-22T01:15:53;-0.20;99.90
16867;DHT22;8550;52.596;13.320;2023-11-22T01:20:56;-0.30;99.90
16867;DHT22;8550;52.596;13.320;2023-11-22T01:26:00;-0.30;99.90
16867;DHT22;8550;52.596;13.320;2023-11-22T01:31:04;-0.40;99.90
16867;DHT22;8550;52.596;13.320;2023-11-22T01:36:07;-0.40;99.90
16867;DHT22;8550;52.596;13.320;2023-11-22T01:41:12;-0.40;99.90
16867;DHT22;8550;52.596;13.320;2023-11-22T01:46:21;-0.40;99.90
16867;DHT22;8550;52.596;13.320;2023-11-22T01:51:24;-0.40;99.90
16867;DHT22;8550;52.596;13.320;2023-11-22T01:56:36;-0.50;99.90
16867;DHT22;8550;52.596;13.320;2023-11-22T02:01:39;-0.60;99.90
16867;DHT22;8550;52.596;13.320;2023-11-22T02:06:41;-0.50;99.90
16867;DHT22;8550;52.596;13.320;2023-11-22T02:11:46;-0.60;99.90
16867;DHT22;8550;52.596;13.320;2023-11-22T02:16:49;-0.60;99.90
16867;DHT22;8550;52.596;13.320;2023-11-22T02:21:51;-0.50;99.90
16867;DHT22;8550;52.596;13.320;2023-11-22T02:26:55;-0.60;99.90
16867;DHT22;8550;52.596;13.320;2023-11-22T02:31:57;-0.60;99.90
16867;DHT22;8550;52.596;13.320;2023-11-22T02:36:59;-0.70;99.90
16867;DHT22;8550;52.596;13.320;2023-11-22T02:42:03;-0.80;99.90
16867;DHT22;8550;52.596;13.320;2023-11-22T02:47:05;-0.70;99.90
16867;DHT22;8550;52.596;13.320;2023-11-22T02:52:07;-0.80;99.90
16867;DHT22;8550;52.596;13.320;2023-11-22T02:57:10;-0.90;99.90
16867;DHT22;8550;52.596;13.320;2023-11-22T03:02:12;-0.80;99.90
16867;DHT22;8550;52.596;13.320;2023-11-22T03:07:17;-1.00;99.90
16867;DHT22;8550;52.596;13.320;2023-11-22T03:12:20;-0.90;99.90
16867;DHT22;8550;52.596;13.320;2023-11-22T03:17:22;-1.00;99.90
16867;DHT22;8550;52.596;13.320;2023-11-22T03:22:24;-1.10;99.90
16867;DHT22;8550;52.596;13.320;2023-11-22T03:27:29;-1.00;99.90
16867;DHT22;8550;52.596;13.320;2023-11-22T03:32:30;-1.00;99.90
16867;DHT22;8550;52.596;13.320;2023-11-22T03:37:37;-1.10;99.90
16867;DHT22;8550;52.596;13.320;2023-11-22T03:42:41;-1.10;99.90
16867;DHT22;8550;52.596;13.320;2023-11-22T03:47:44;-1.10;99.90
16867;DHT22;8550;52.596;13.320;2023-11-22T03:52:47;-1.00;99.90
16867;DHT22;8550;52.596;13.320;2023-11-22T03:57:50;-1.10;99.90
16867;DHT22;8550;52.596;13.320;2023-11-22T04:02:53;-1.10;99.90
16867;DHT22;8550;52.596;13.320;2023-11-22T04:07:57;-1.10;99.90
16867;DHT22;8550;52.596;13.320;2023-11-22T04:13:00;-1.10;99.90
16867;DHT22;8550;52.596;13.320;2023-11-22T04:18:02;-1.10;99.90
16867;DHT22;8550;52.596;13.320;2023-11-22T04:23:04;-1.20;99.90
16867;DHT22;8550;52.596;13.320;2023-11-22T04:28:08;-1.20;99.90
16867;DHT22;8550;52.596;13.320;2023-11-22T04:33:10;-1.20;99.90
16867;DHT22;8550;52.596;13.320;2023-11-22T04:38:12;-1.20;99.90
16867;DHT22;8550;52.596;13.320;2023-11-22T04:43:16;-1.30;99.90
16867;DHT22;8550;52.596;13.320;2023-11-22T04:48:18;-1.20;99.90
16867;DHT22;8550;52.596;13.320;2023-11-22T04:53:20;-1.30;99.90
16867;DHT22;8550;52.596;13.320;2023-11-22T04:58:24;-1.30;99.90
16867;DHT22;8550;52.596;13.320;2023-11-22T05:03:25;-1.40;99.90
16867;DHT22;8550;52.596;13.320;2023-11-22T05:08:28;-1.50;99.90
16867;DHT22;8550;52.596;13.320;2023-11-22T05:13:32;-1.50;99.90
16867;DHT22;8550;52.596;13.320;2023-11-22T05:18:34;-1.50;99.90
16867;DHT22;8550;52.596;13.320;2023-11-22T05:23:36;-1.50;99.90
16867;DHT22;8550;52.596;13.320;2023-11-22T05:28:39;-1.60;99.90
16867;DHT22;8550;52.596;13.320;2023-11-22T05:33:41;-1.60;99.90
16867;DHT22;8550;52.596;13.320;2023-11-22T05:38:43;-1.60;99.90
16867;DHT22;8550;52.596;13.320;2023-11-22T05:43:46;-1.70;99.90
16867;DHT22;8550;52.596;13.320;2023-11-22T05:48:48;-1.70;99.90
16867;DHT22;8550;52.596;13.320;2023-11-22T05:53:51;-1.70;99.90
16867;DHT22;8550;52.596;13.320;2023-11-22T05:58:54;-1.80;99.90
16867;DHT22;8550;52.596;13.320;2023-11-22T06:03:56;-1.70;99.90
16867;DHT22;8550;52.596;13.320;2023-11-22T06:08:58;-1.70;99.90
16867;DHT22;8550;52.596;13.320;2023-11-22T06:14:02;-1.70;99.90
16867;DHT22;8550;52.596;13.320;2023-11-22T06:19:04;-1.80;99.90
16867;DHT22;8550;52.596;13.320;2023-11-22T06:24:08;-1.70;99.90
16867;DHT22;8550;52.596;13.320;2023-11-22T06:29:13;-1.80;99.90
16867;DHT22;8550;52.596;13.320;2023-11-22T06:34:16;-1.80;99.90
16867;DHT22;8550;52.596;13.320;2023-11-22T06:39:18;-1.80;99.90
16867;DHT22;8550;52.596;13.320;2023-11-22T06:44:21;-1.80;99.90
16867;DHT22;8550;52.596;13.320;2023-11-22T06:49:23;-1.90;99.90
16867;DHT22;8550;52.596;13.320;2023-11-22T06:54:25;-1.80;99.90
16867;DHT22;8550;52.596;13.320;2023-11-22T06:59:28;-1.80;99.90
16867;DHT22;8550;52.596;13.320;2023-11-22T07:04:30;-1.80;99.90
16867;DHT22;8550;52.596;13.320;2023-11-22T07:09:32;-1.70;99.90
16867;DHT22;8550;52.596;13.320;2023-11-22T07:14:35;-1.70;99.90
16867;DHT22;8550;52.596;13.320;2023-11-22T07:19:37;-1.70;99.90
16867;DHT22;8550;52.596;13.320;2023-11-22T07:24:39;-1.60;99.90
16867;DHT22;8550;52.596;13.320;2023-11-22T07:29:45;-1.50;99.90
16867;DHT22;8550;52.596;13.320;2023-11-22T07:34:47;-1.40;99.90
16867;DHT22;8550;52.596;13.320;2023-11-22T07:39:49;-1.40;99.90
16867;DHT22;8550;52.596;13.320;2023-11-22T07:44:54;-1.30;99.90
16867;DHT22;8550;52.596;13.320;2023-11-22T07:49:56;-1.10;99.90
16867;DHT22;8550;52.596;13.320;2023-11-22T07:54:58;-1.00;99.90
16867;DHT22;8550;52.596;13.320;2023-11-22T08:00:03;-0.80;99.90
16867;DHT22;8550;52.596;13.320;2023-11-22T08:05:07;-0.60;99.90
16867;DHT22;8550;52.596;13.320;2023-11-22T08:10:10;-0.50;99.90
16867;DHT22;8550;52.596;13.320;2023-11-22T08:15:20;-0.40;99.90
16867;DHT22;8550;52.596;13.320;2023-11-22T08:20:22;-0.40;99.90
16867;DHT22;8550;52.596;13.320;2023-11-22T08:25:25;-0.20;99.90
16867;DHT22;8550;52.596;13.320;2023-11-22T08:30:29;-0.20;99.90
16867;DHT22;8550;52.596;13.320;2023-11-22T08:35:33;-0.10;99.90
16867;DHT22;8550;52.596;13.320;2023-11-22T08:40:35;-0.20;99.90
16867;DHT22;8550;52.596;13.320;2023-11-22T08:45:39;0.10;99.90
16867;DHT22;8550;52.596;13.320;2023-11-22T08:50:42;0.30;99.90
16867;DHT22;8550;52.596;13.320;2023-11-22T08:55:45;0.40;99.90
16867;DHT22;8550;52.596;13.320;2023-11-22T09:00:48;0.40;99.90
16867;DHT22;8550;52.596;13.320;2023-11-22T09:05:50;0.50;99.90
16867;DHT22;8550;52.596;13.320;2023-11-22T09:10:53;0.60;99.90
16867;DHT22;8550;52.596;13.320;2023-11-22T09:15:57;0.80;99.90
16867;DHT22;8550;52.596;13.320;2023-11-22T09:20:58;1.00;99.90
16867;DHT22;8550;52.596;13.320;2023-11-22T09:26:00;1.10;99.90
16867;DHT22;8550;52.596;13.320;2023-11-22T09:31:04;1.20;99.90
16867;DHT22;8550;52.596;13.320;2023-11-22T09:36:08;1.40;99.90
16867;DHT22;8550;52.596;13.320;2023-11-22T09:41:11;1.60;99.90
16867;DHT22;8550;52.596;13.320;2023-11-22T09:46:16;1.90;99.90
16867;DHT22;8550;52.596;13.320;2023-11-22T09:51:23;1.90;99.90
16867;DHT22;8550;52.596;13.320;2023-11-22T09:56:26;2.10;99.90
16867;DHT22;8550;52.596;13.320;2023-11-22T10:01:30;2.30;99.90
16867;DHT22;8550;52.596;13.320;2023-11-22T10:06:34;2.50;99.90
16867;DHT22;8550;52.596;13.320;2023-11-22T10:11:36;2.90;99.90
16867;DHT22;8550;52.596;13.320;2023-11-22T10:16:40;3.60;99.90
16867;DHT22;8550;52.596;13.320;2023-11-22T10:21:42;4.20;99.90
16867;DHT22;8550;52.596;13.320;2023-11-22T10:26:44;4.50;99.90
16867;DHT22;8550;52.596;13.320;2023-11-22T10:31:48;4.70;99.90
16867;DHT22;8550;52.596;13.320;2023-11-22T10:36:51;4.90;99.90
16867;DHT22;8550;52.596;13.320;2023-11-22T10:41:53;5.10;99.90
16867;DHT22;8550;52.596;13.320;2023-11-22T10:46:56;5.40;99.90
16867;DHT22;8550;52.596;13.320;2023-11-22T10:51:59;5.60;99.90
16867;DHT22;8550;52.596;13.320;2023-11-22T10:57:02;5.90;98.70
16867;DHT22;8550;52.596;13.320;2023-11-22T11:02:07;6.10;97.60
16867;DHT22;8550;52.596;13.320;2023-11-22T11:07:15;6.90;93.60
16867;DHT22;8550;52.596;13.320;2023-11-22T11:12:19;7.40;92.20
16867;DHT22;8550;52.596;13.320;2023-11-22T11:17:23;7.60;89.30
16867;DHT22;8550;52.596;13.320;2023-11-22T11:22:26;7.90;88.10
16867;DHT22;8550;52.596;13.320;2023-11-22T11:27:29;8.00;89.60
16867;DHT22;8550;52.596;13.320;2023-11-22T11:32:33;8.10;85.70
16867;DHT22;8550;52.596;13.320;2023-11-22T11:37:37;8.60;85.30
16867;DHT22;8550;52.596;13.320;2023-11-22T11:42:40;9.10;80.40
16867;DHT22;8550;52.596;13.320;2023-11-22T11:47:44;9.10;77.80
16867;DHT22;8550;52.596;13.320;2023-11-22T11:52:47;8.50;79.80
16867;DHT22;8550;52.596;13.320;2023-11-22T11:57:49;6.20;86.30
16867;DHT22;8550;52.596;13.320;2023-11-22T12:02:54;4.90;94.20
16867;DHT22;8550;52.596;13.320;2023-11-22T12:07:56;4.20;99.00
16867;DHT22;8550;52.596;13.320;2023-11-22T12:12:58;4.30;99.80
16867;DHT22;8550;52.596;13.320;2023-11-22T12:18:02;4.10;99.80
16867;DHT22;8550;52.596;13.320;2023-11-22T12:23:05;4.40;99.90
16867;DHT22;8550;52.596;13.320;2023-11-22T12:28:07;4.40;99.70
16867;DHT22;8550;52.596;13.320;2023-11-22T12:33:10;4.50;99.90
16867;DHT22;8550;52.596;13.320;2023-11-22T12:38:13;4.60;99.90
16867;DHT22;8550;52.596;13.320;2023-11-22T12:43:15;4.70;99.90
16867;DHT22;8550;52.596;13.320;2023-11-22T12:48:23;4.70;96.90
16867;DHT22;8550;52.596;13.320;2023-11-22T12:53:25;4.80;95.00
16867;DHT22;8550;52.596;13.320;2023-11-22T12:58:28;5.00;93.70
16867;DHT22;8550;52.596;13.320;2023-11-22T13:03:31;4.90;93.10
16867;DHT22;8550;52.596;13.320;2023-11-22T13:08:33;5.00;94.60
16867;DHT22;8550;52.596;13.320;2023-11-22T13:13:36;4.60;92.50
16867;DHT22;8550;52.596;13.320;2023-11-22T13:18:40;4.50;93.50
16867;DHT22;8550;52.596;13.320;2023-11-22T13:23:42;4.40;93.90
16867;DHT22;8550;52.596;13.320;2023-11-22T13:28:44;4.50;93.70
16867;DHT22;8550;52.596;13.320;2023-11-22T13:33:47;4.50;93.80
16867;DHT22;8550;52.596;13.320;2023-11-22T13:38:49;4.50;94.20
16867;DHT22;8550;52.596;13.320;2023-11-22T13:43:51;4.30;93.90
16867;DHT22;8550;52.596;13.320;2023-11-22T13:48:54;4.30;94.70
16867;DHT22;8550;52.596;13.320;2023-11-22T13:53:56;4.30;95.20
16867;DHT22;8550;52.596;13.320;2023-11-22T13:58:59;4.10;94.30
16867;DHT22;8550;52.596;13.320;2023-11-22T14:04:04;4.10;95.80
16867;DHT22;8550;52.596;13.320;2023-11-22T14:09:06;3.80;97.00
16867;DHT22;8550;52.596;13.320;2023-11-22T14:14:09;3.70;97.00
16867;DHT22;8550;52.596;13.320;2023-11-22T14:19:12;3.60;97.40
16867;DHT22;8550;52.596;13.320;2023-11-22T14:24:14;3.50;98.70
16867;DHT22;8550;52.596;13.320;2023-11-22T14:29:16;3.40;98.80
16867;DHT22;8550;52.596;13.320;2023-11-22T14:34:19;3.20;98.20
16867;DHT22;8550;52.596;13.320;2023-11-22T14:39:21;3.00;98.60
16867;DHT22;8550;52.596;13.320;2023-11-22T14:44:24;2.90;99.50
16867;DHT22;8550;52.596;13.320;2023-11-22T14:49:27;2.80;99.90
16867;DHT22;8550;52.596;13.320;2023-11-22T14:54:29;2.70;99.90
16867;DHT22;8550;52.596;13.320;2023-11-22T14:59:31;2.60;99.90
16867;DHT22;8550;52.596;13.320;2023-11-22T15:04:34;2.50;99.90
16867;DHT22;8550;52.596;13.320;2023-11-22T15:09:38;2.50;99.90
16867;DHT22;8550;52.596;13.320;2023-11-22T15:14:40;2.50;99.90
16867;DHT22;8550;52.596;13.320;2023-11-22T15:19:44;2.40;99.90
16867;DHT22;8550;52.596;13.320;2023-11-22T15:24:46;2.40;99.90
16867;DHT22;8550;52.596;13.320;2023-11-22T15:29:48;2.30;99.90
16867;DHT22;8550;52.596;13.320;2023-11-22T15:34:51;2.30;99.90
16867;DHT22;8550;52.596;13.320;2023-11-22T15:39:53;2.20;99.90
16867;DHT22;8550;52.596;13.320;2023-11-22T15:44:56;2.20;99.90
16867;DHT22;8550;52.596;13.320;2023-11-22T15:49:59;2.20;99.90
16867;DHT22;8550;52.596;13.320;2023-11-22T15:55:01;2.20;99.90
16867;DHT22;8550;52.596;13.320;2023-11-22T16:00:06;2.30;99.90
16867;DHT22;8550;52.596;13.320;2023-11-22T16:05:12;2.20;99.90
16867;DHT22;8550;52.596;13.320;2023-11-22T16:10:14;2.20;99.90
16867;DHT22;8550;52.596;13.320;2023-11-22T16:15:17;2.20;99.90
16867;DHT22;8550;52.596;13.320;2023-11-22T16:20:21;2.10;99.90
16867;DHT22;8550;52.596;13.320;2023-11-22T16:25:23;2.30;99.90
16867;DHT22;8550;52.596;13.320;2023-11-22T16:30:25;2.10;99.90
16867;DHT22;8550;52.596;13.320;2023-11-22T16:35:29;2.00;99.90
16867;DHT22;8550;52.596;13.320;2023-11-22T16:40:32;2.00;99.90
16867;DHT22;8550;52.596;13.320;2023-11-22T16:45:34;2.10;99.90
16867;DHT22;8550;52.596;13.320;2023-11-22T16:50:37;2.10;99.90
16867;DHT22;8550;52.596;13.320;2023-11-22T16:55:39;2.00;99.90
16867;DHT22;8550;52.596;13.320;2023-11-22T17:00:42;2.00;99.90
16867;DHT22;8550;52.596;13.320;2023-11-22T17:05:47;2.00;99.90
16867;DHT22;8550;52.596;13.320;2023-11-22T17:10:50;2.00;99.90
16867;DHT22;8550;52.596;13.320;2023-11-22T17:15:53;1.90;99.90
16867;DHT22;8550;52.596;13.320;2023-11-22T17:20:57;1.90;99.90
16867;DHT22;8550;52.596;13.320;2023-11-22T17:25:59;1.90;99.90
16867;DHT22;8550;52.596;13.320;2023-11-22T17:31:01;1.80;99.90
16867;DHT22;8550;52.596;13.320;2023-11-22T17:36:05;1.80;99.90
16867;DHT22;8550;52.596;13.320;2023-11-22T17:41:07;1.80;99.90
16867;DHT22;8550;52.596;13.320;2023-11-22T17:46:09;1.90;99.90
16867;DHT22;8550;52.596;13.320;2023-11-22T17:51:12;1.70;99.90
16867;DHT22;8550;52.596;13.320;2023-11-22T17:56:14;1.70;99.90
16867;DHT22;8550;52.596;13.320;2023-11-22T18:01:16;1.70;99.90
16867;DHT22;8550;52.596;13.320;2023-11-22T18:06:19;1.60;99.90
16867;DHT22;8550;52.596;13.320;2023-11-22T18:11:21;1.60;99.90
16867;DHT22;8550;52.596;13.320;2023-11-22T18:16:23;1.40;99.90
16867;DHT22;8550;52.596;13.320;2023-11-22T18:21:27;1.40;99.90
16867;DHT22;8550;52.596;13.320;2023-11-22T18:26:29;1.70;99.90
16867;DHT22;8550;52.596;13.320;2023-11-22T18:31:31;1.50;99.90
16867;DHT22;8550;52.596;13.320;2023-11-22T18:36:34;1.20;99.90
16867;DHT22;8550;52.596;13.320;2023-11-22T18:41:36;1.30;99.90
16867;DHT22;8550;52.596;13.320;2023-11-22T18:46:38;1.10;99.90
16867;DHT22;8550;52.596;13.320;2023-11-22T18:51:41;1.10;99.90
16867;DHT22;8550;52.596;13.320;2023-11-22T18:56:43;1.10;99.90
16867;DHT22;8550;52.596;13.320;2023-11-22T19:01:45;1.10;99.90
16867;DHT22;8550;52.596;13.320;2023-11-22T19:06:48;1.00;99.90
16867;DHT22;8550;52.596;13.320;2023-11-22T19:11:50;1.00;99.90
16867;DHT22;8550;52.596;13.320;2023-11-22T19:16:52;1.10;99.90
16867;DHT22;8550;52.596;13.320;2023-11-22T19:21:56;1.00;99.90
16867;DHT22;8550;52.596;13.320;2023-11-22T19:26:58;1.00;99.90
16867;DHT22;8550;52.596;13.320;2023-11-22T19:31:59;1.00;99.90
16867;DHT22;8550;52.596;13.320;2023-11-22T19:37:03;1.00;99.90
16867;DHT22;8550;52.596;13.320;2023-11-22T19:42:05;0.90;99.90
16867;DHT22;8550;52.596;13.320;2023-11-22T19:47:08;0.90;99.90
16867;DHT22;8550;52.596;13.320;2023-11-22T19:52:12;0.90;99.90
16867;DHT22;8550;52.596;13.320;2023-11-22T19:57:14;0.80;99.90
16867;DHT22;8550;52.596;13.320;2023-11-22T20:02:16;0.70;99.90
16867;DHT22;8550;52.596;13.320;2023-11-22T20:07:19;0.70;99.90
16867;DHT22;8550;52.596;13.320;2023-11-22T20:12:21;0.70;99.90
16867;DHT22;8550;52.596;13.320;2023-11-22T20:17:23;0.70;99.90
16867;DHT22;8550;52.596;13.320;2023-11-22T20:22:27;0.80;99.90
16867;DHT22;8550;52.596;13.320;2023-11-22T20:27:29;0.90;99.90
16867;DHT22;8550;52.596;13.320;2023-11-22T20:32:31;1.00;99.90
16867;DHT22;8550;52.596;13.320;2023-11-22T20:37:35;1.10;99.90
16867;DHT22;8550;52.596;13.320;2023-11-22T20:42:36;1.10;99.90
16867;DHT22;8550;52.596;13.320;2023-11-22T20:47:38;1.00;99.90
16867;DHT22;8550;52.596;13.320;2023-11-22T20:52:43;1.10;99.90
16867;DHT22;8550;52.596;13.320;2023-11-22T20:57:45;1.10;99.90
16867;DHT22;8550;52.596;13.320;2023-11-22T21:02:47;1.10;99.90
16867;DHT22;8550;52.596;13.320;2023-11-22T21:07:50;1.20;99.90
16867;DHT22;8550;52.596;13.320;2023-11-22T21:12:52;1.10;99.90
16867;DHT22;8550;52.596;13.320;2023-11-22T21:17:54;1.20;99.90
16867;DHT22;8550;52.596;13.320;2023-11-22T21:22:57;1.20;99.90
16867;DHT22;8550;52.596;13.320;2023-11-22T21:28:00;1.20;99.90
16867;DHT22;8550;52.596;13.320;2023-11-22T21:33:03;1.10;99.90
16867;DHT22;8550;52.596;13.320;2023-11-22T21:38:06;1.10;99.90
16867;DHT22;8550;52.596;13.320;2023-11-22T21:43:08;1.10;99.90
16867;DHT22;8550;52.596;13.320;2023-11-22T21:48:10;1.20;99.90
16867;DHT22;8550;52.596;13.320;2023-11-22T21:53:13;1.20;99.90
16867;DHT22;8550;52.596;13.320;2023-11-22T21:58:16;1.30;99.90
16867;DHT22;8550;52.596;13.320;2023-11-22T22:03:18;1.30;99.90
16867;DHT22;8550;52.596;13.320;2023-11-22T22:08:21;1.40;99.90
16867;DHT22;8550;52.596;13.320;2023-11-22T22:13:23;1.50;99.90
16867;DHT22;8550;52.596;13.320;2023-11-22T22:18:25;1.50;99.90
16867;DHT22;8550;52.596;13.320;2023-11-22T22:23:29;1.50;99.90
16867;DHT22;8550;52.596;13.320;2023-11-22T22:28:33;1.50;99.90
16867;DHT22;8550;52.596;13.320;2023-11-22T22:33:35;1.60;99.90
16867;DHT22;8550;52.596;13.320;2023-11-22T22:38:38;1.70;99.90
16867;DHT22;8550;52.596;13.320;2023-11-22T22:43:40;1.70;99.90
16867;DHT22;8550;52.596;13.320;2023-11-22T22:48:42;1.80;99.90
16867;DHT22;8550;52.596;13.320;2023-11-22T22:53:47;1.70;99.90
16867;DHT22;8550;52.596;13.320;2023-11-22T22:58:49;1.90;99.90
16867;DHT22;8550;52.596;13.320;2023-11-22T23:03:52;1.90;99.90
16867;DHT22;8550;52.596;13.320;2023-11-22T23:08:55;2.00;99.90
16867;DHT22;8550;52.596;13.320;2023-11-22T23:13:57;2.10;99.90
16867;DHT22;8550;52.596;13.320;2023-11-22T23:18:59;2.10;99.90
16867;DHT22;8550;52.596;13.320;2023-11-22T23:24:03;2.20;99.90
16867;DHT22;8550;52.596;13.320;2023-11-22T23:29:05;2.20;99.90
16867;DHT22;8550;52.596;13.320;2023-11-22T23:34:07;2.30;99.90
16867;DHT22;8550;52.596;13.320;2023-11-22T23:39:10;2.30;99.90
16867;DHT22;8550;52.596;13.320;2023-11-22T23:44:13;2.40;99.90
16867;DHT22;8550;52.596;13.320;2023-11-22T23:49:16;2.40;99.90
16867;DHT22;8550;52.596;13.320;2023-11-22T23:54:19;2.50;99.90
16867;DHT22;8550;52.596;13.320;2023-11-22T23:59:21;2.60;99.90
